createdAt,value
2023-01-23T00:00:32.074Z,101751.16
2023-01-23T00:02:58.290Z,101754.72
2023-01-23T00:05:27.019Z,101751.81
2023-01-23T00:16:26.285Z,101772.34
2023-01-23T00:19:24.956Z,101762.19
2023-01-23T00:27:40.358Z,101742.34
2023-01-23T00:30:28.095Z,101740.41
2023-01-23T00:32:55.658Z,101727.53
2023-01-23T00:35:23.471Z,101723.19
2023-01-23T00:38:08.520Z,101716.13
2023-01-23T00:40:47.972Z,101719.38
2023-01-23T00:43:14.401Z,101726.44
2023-01-23T00:45:45.730Z,101729.63
2023-01-23T00:48:12.042Z,101726.38
2023-01-23T00:50:42.652Z,101721.28
2023-01-23T00:53:20.989Z,101727.22
2023-01-23T00:55:59.401Z,101728.50
2023-01-23T00:58:48.054Z,101728.34
2023-01-23T01:01:14.987Z,101726.22
2023-01-23T01:06:34.713Z,101721.16
2023-01-23T01:09:09.208Z,101712.31
2023-01-23T01:11:36.645Z,101723.03
2023-01-23T01:14:05.382Z,101714.25
2023-01-23T01:16:34.543Z,101716.81
2023-01-23T01:19:05.871Z,101708.13
2023-01-23T01:21:34.822Z,101719.00
2023-01-23T01:24:03.674Z,101724.66
2023-01-23T01:26:30.048Z,101717.06
2023-01-23T01:28:59.327Z,101706.44
2023-01-23T01:31:25.762Z,101695.69
2023-01-23T01:33:52.181Z,101683.19
2023-01-23T01:36:19.309Z,101683.47
2023-01-23T01:38:45.645Z,101703.66
2023-01-23T01:41:14.502Z,101705.28
2023-01-23T01:43:43.048Z,101710.06
2023-01-23T01:46:15.300Z,101702.41
2023-01-23T01:48:46.062Z,101692.78
2023-01-23T01:51:19.623Z,101694.03
2023-01-23T01:53:48.262Z,101688.66
2023-01-23T01:56:17.049Z,101674.59
2023-01-23T01:58:44.132Z,101676.06
2023-01-23T02:01:10.436Z,101676.38
2023-01-23T02:03:39.827Z,101672.66
2023-01-23T02:06:06.070Z,101676.22
2023-01-23T02:08:37.651Z,101690.13
2023-01-23T02:11:04.009Z,101676.31
2023-01-23T02:13:30.228Z,101683.03
2023-01-23T02:16:01.994Z,101681.44
2023-01-23T02:18:28.431Z,101673.16
2023-01-23T02:21:00.076Z,101684.31
2023-01-23T02:23:37.709Z,101685.91
2023-01-23T02:26:07.036Z,101668.69
2023-01-23T02:29:02.854Z,101656.97
2023-01-23T02:31:29.176Z,101656.16
2023-01-23T02:34:03.962Z,101650.38
2023-01-23T02:36:38.381Z,101639.44
2023-01-23T02:39:17.165Z,101631.06
2023-01-23T02:41:57.959Z,101622.88
2023-01-23T02:44:36.087Z,101619.84
2023-01-23T02:47:03.637Z,101614.84
2023-01-23T02:49:29.882Z,101606.00
2023-01-23T02:52:04.681Z,101609.69
2023-01-23T02:54:34.396Z,101604.13
2023-01-23T02:57:00.733Z,101610.19
2023-01-23T02:59:29.991Z,101611.16
2023-01-23T03:01:58.887Z,101611.72
2023-01-23T03:04:25.301Z,101617.63
2023-01-23T03:06:51.539Z,101628.34
2023-01-23T03:09:17.927Z,101634.56
2023-01-23T03:11:44.545Z,101654.75
2023-01-23T03:14:13.277Z,101659.78
2023-01-23T03:16:39.535Z,101670.41
2023-01-23T03:19:06.864Z,101681.00
2023-01-23T03:21:44.255Z,101683.06
2023-01-23T03:24:20.495Z,101683.91
2023-01-23T03:29:32.381Z,101680.06
2023-01-23T03:32:05.351Z,101697.56
2023-01-23T03:34:34.319Z,101688.75
2023-01-23T03:37:06.586Z,101693.50
2023-01-23T03:39:32.850Z,101690.78
2023-01-23T03:42:08.213Z,101690.50
2023-01-23T03:44:40.538Z,101698.50
2023-01-23T03:47:12.736Z,101695.81
2023-01-23T03:49:39.014Z,101692.13
2023-01-23T03:52:18.305Z,101705.94
2023-01-23T03:54:44.689Z,101723.81
2023-01-23T03:57:11.021Z,101723.59
2023-01-23T03:59:49.725Z,101723.59
2023-01-23T04:02:15.960Z,101712.88
2023-01-23T04:04:44.886Z,101708.13
2023-01-23T04:07:13.845Z,101708.44
2023-01-23T04:09:55.170Z,101707.34
2023-01-23T04:12:33.260Z,101714.25
2023-01-23T04:15:05.293Z,101712.34
2023-01-23T04:17:31.547Z,101706.53
2023-01-23T04:19:57.810Z,101703.31
2023-01-23T04:22:24.155Z,101698.16
2023-01-23T04:25:02.902Z,101696.75
2023-01-23T04:27:46.163Z,101708.13
2023-01-23T04:30:23.759Z,101698.47
2023-01-23T04:35:42.192Z,101689.47
2023-01-23T04:38:08.439Z,101709.41
2023-01-23T04:40:43.844Z,101715.66
2023-01-23T04:43:27.725Z,101726.75
2023-01-23T04:45:54.325Z,101731.91
2023-01-23T04:48:23.439Z,101742.19
2023-01-23T04:50:49.785Z,101730.00
2023-01-23T04:53:16.046Z,101738.06
2023-01-23T04:55:42.420Z,101739.69
2023-01-23T04:58:17.638Z,101742.41
2023-01-23T05:00:43.903Z,101749.47
2023-01-23T05:03:10.136Z,101742.25
2023-01-23T05:05:36.375Z,101746.97
2023-01-23T05:08:02.595Z,101748.75
2023-01-23T05:10:28.831Z,101754.19
2023-01-23T05:12:56.260Z,101749.84
2023-01-23T05:15:22.528Z,101771.59
2023-01-23T05:17:48.855Z,101774.47
2023-01-23T05:20:15.112Z,101788.16
2023-01-23T05:22:41.366Z,101800.53
2023-01-23T05:25:07.910Z,101799.03
2023-01-23T05:27:34.126Z,101795.22
2023-01-23T05:30:00.348Z,101797.66
2023-01-23T05:32:26.586Z,101796.03
2023-01-23T05:34:52.796Z,101811.75
2023-01-23T05:37:19.024Z,101809.09
2023-01-23T05:39:45.225Z,101823.88
2023-01-23T05:42:11.446Z,101838.69
2023-01-23T05:44:37.640Z,101840.16
2023-01-23T05:47:03.845Z,101850.28
2023-01-23T05:49:30.059Z,101852.34
2023-01-23T05:51:56.290Z,101856.75
2023-01-23T05:54:22.504Z,101869.13
2023-01-23T05:56:48.742Z,101870.88
2023-01-23T05:59:14.977Z,101878.59
2023-01-23T06:01:41.189Z,101874.13
2023-01-23T06:04:07.385Z,101882.13
2023-01-23T06:06:33.581Z,101883.47
2023-01-23T06:08:59.904Z,101896.63
2023-01-23T06:11:26.112Z,101909.66
2023-01-23T06:13:52.331Z,101915.91
2023-01-23T06:16:18.585Z,101929.56
2023-01-23T06:18:44.807Z,101935.25
2023-01-23T06:21:11.039Z,101936.34
2023-01-23T06:23:37.270Z,101937.00
2023-01-23T06:26:03.568Z,101934.72
2023-01-23T06:28:29.853Z,101942.16
2023-01-23T06:30:59.860Z,101951.28
2023-01-23T06:33:26.143Z,101941.53
2023-01-23T06:35:56.893Z,101940.88
2023-01-23T06:38:23.096Z,101914.63
2023-01-23T06:40:49.301Z,101906.91
2023-01-23T06:43:15.511Z,101900.28
2023-01-23T06:45:45.092Z,101895.13
2023-01-23T06:48:11.302Z,101891.59
2023-01-23T06:50:37.977Z,101897.84
2023-01-23T06:53:04.251Z,101892.41
2023-01-23T06:55:30.458Z,101887.28
2023-01-23T06:57:56.672Z,101889.09
2023-01-23T07:00:23.063Z,101880.44
2023-01-23T07:02:49.488Z,101889.91
2023-01-23T07:05:15.820Z,101885.16
2023-01-23T07:07:42.025Z,101891.13
2023-01-23T07:10:08.595Z,101897.38
2023-01-23T07:12:34.820Z,101905.25
2023-01-23T07:15:01.019Z,101900.50
2023-01-23T07:17:27.242Z,101898.44
2023-01-23T07:19:53.448Z,101910.25
2023-01-23T07:22:19.949Z,101917.38
2023-01-23T07:24:46.138Z,101911.72
2023-01-23T07:27:12.351Z,101922.06
2023-01-23T07:29:38.566Z,101930.06
2023-01-23T07:32:04.901Z,101927.63
2023-01-23T07:34:31.123Z,101931.16
2023-01-23T07:36:57.321Z,101928.81
2023-01-23T07:39:23.528Z,101930.88
2023-01-23T07:41:49.747Z,101939.25
2023-01-23T07:44:16.526Z,101938.59
2023-01-23T07:46:43.096Z,101922.34
2023-01-23T07:49:09.331Z,101920.72
2023-01-23T07:51:35.542Z,101922.34
2023-01-23T07:54:01.771Z,101925.72
2023-01-23T07:56:27.980Z,101933.59
2023-01-23T07:58:57.246Z,101928.97
2023-01-23T08:01:23.656Z,101941.69
2023-01-23T08:03:49.931Z,101951.59
2023-01-23T08:06:16.155Z,101958.44
2023-01-23T08:08:42.369Z,101964.00
2023-01-23T08:11:08.681Z,101969.50
2023-01-23T08:13:34.884Z,101975.41
2023-01-23T08:16:01.134Z,101981.34
2023-01-23T08:18:28.345Z,101993.66
2023-01-23T08:20:54.888Z,101995.69
2023-01-23T08:23:23.088Z,102010.31
2023-01-23T08:25:52.150Z,102015.47
2023-01-23T08:28:18.444Z,102018.06
2023-01-23T08:30:44.694Z,102023.16
2023-01-23T08:33:10.939Z,102027.38
2023-01-23T08:35:37.158Z,102034.94
2023-01-23T08:38:03.518Z,102040.09
2023-01-23T08:40:29.797Z,102037.66
2023-01-23T08:42:57.408Z,102036.97
2023-01-23T08:45:23.724Z,102038.47
2023-01-23T08:47:49.954Z,102042.19
2023-01-23T08:50:16.235Z,102062.13
2023-01-23T08:52:42.454Z,102060.06
2023-01-23T08:55:08.945Z,102071.47
2023-01-23T08:57:35.150Z,102074.06
2023-01-23T09:00:01.374Z,102072.09
2023-01-23T09:02:27.782Z,102063.25
2023-01-23T09:04:54.031Z,102065.88
2023-01-23T09:07:20.240Z,102058.81
2023-01-23T09:09:46.737Z,102055.19
2023-01-23T09:12:12.943Z,102057.75
2023-01-23T09:14:39.159Z,102066.47
2023-01-23T09:17:05.355Z,102067.94
2023-01-23T09:19:31.616Z,102068.31
2023-01-23T09:21:57.823Z,102068.47
2023-01-23T09:24:24.042Z,102079.53
2023-01-23T09:26:50.236Z,102077.09
2023-01-23T09:29:16.457Z,102082.25
2023-01-23T09:31:42.710Z,102093.41
2023-01-23T09:34:08.985Z,102098.84
2023-01-23T09:36:42.743Z,102104.94
2023-01-23T09:39:09.681Z,102109.13
2023-01-23T09:41:35.898Z,102120.53
2023-01-23T09:44:17.326Z,102127.00
2023-01-23T09:46:53.518Z,102121.84
2023-01-23T09:49:25.181Z,102123.84
2023-01-23T09:51:51.411Z,102125.06
2023-01-23T09:54:25.712Z,102128.38
2023-01-23T09:56:51.923Z,102132.88
2023-01-23T09:59:24.546Z,102149.28
2023-01-23T10:01:50.831Z,102154.16
2023-01-23T10:04:17.717Z,102156.72
2023-01-23T10:06:49.259Z,102168.41
2023-01-23T10:09:18.236Z,102185.88
2023-01-23T10:11:59.437Z,102179.50
2023-01-23T10:14:39.606Z,102200.41
2023-01-23T10:17:24.283Z,102221.56
2023-01-23T10:20:02.946Z,102229.81
2023-01-23T10:22:33.027Z,102235.06
2023-01-23T10:24:59.266Z,102229.63
2023-01-23T10:27:38.970Z,102233.69
2023-01-23T10:30:07.660Z,102241.16
2023-01-23T10:32:39.564Z,102248.84
2023-01-23T10:35:07.911Z,102273.72
2023-01-23T10:37:39.975Z,102287.66
2023-01-23T10:40:16.178Z,102290.66
2023-01-23T10:42:42.395Z,102302.28
2023-01-23T10:45:14.163Z,102306.78
2023-01-23T10:47:45.073Z,102324.81
2023-01-23T10:50:12.694Z,102341.09
2023-01-23T10:52:42.659Z,102354.41
2023-01-23T10:55:18.138Z,102359.81
2023-01-23T10:57:48.188Z,102370.50
2023-01-23T11:00:37.777Z,102392.44
2023-01-23T11:03:17.825Z,102400.63
2023-01-23T11:05:52.527Z,102436.84
2023-01-23T11:08:29.496Z,102451.88
2023-01-23T11:11:14.137Z,102474.72
2023-01-23T11:13:40.381Z,102488.97
2023-01-23T11:16:06.698Z,102501.44
2023-01-23T11:18:33.776Z,102531.16
2023-01-23T11:20:59.989Z,102553.56
2023-01-23T11:23:26.215Z,102568.47
2023-01-23T11:25:52.875Z,102579.72
2023-01-23T11:28:22.058Z,102586.13
2023-01-23T11:30:49.818Z,102596.19
2023-01-23T11:33:19.549Z,102594.00
2023-01-23T11:36:07.296Z,102617.88
2023-01-23T11:38:44.901Z,102618.00
2023-01-23T11:41:17.714Z,102623.31
2023-01-23T11:43:43.935Z,102630.47
2023-01-23T11:46:16.849Z,102634.44
2023-01-23T11:48:59.532Z,102643.25
2023-01-23T11:51:28.880Z,102647.75
2023-01-23T11:54:02.115Z,102662.94
2023-01-23T11:56:31.068Z,102673.50
2023-01-23T11:59:07.031Z,102681.22
2023-01-23T12:01:33.221Z,102685.19
2023-01-23T12:04:11.671Z,102694.69
2023-01-23T12:07:04.022Z,102698.50
2023-01-23T12:09:37.916Z,102696.47
2023-01-23T12:12:13.310Z,102718.72
2023-01-23T12:14:47.856Z,102715.19
2023-01-23T12:17:24.972Z,102729.53
2023-01-23T12:20:06.416Z,102735.50
2023-01-23T12:22:41.947Z,102742.44
2023-01-23T12:25:17.895Z,102751.56
2023-01-23T12:27:45.283Z,102766.88
2023-01-23T12:30:11.514Z,102770.97
2023-01-23T12:32:56.559Z,102769.78
2023-01-23T12:35:22.728Z,102772.03
2023-01-23T12:38:05.730Z,102784.50
2023-01-23T12:40:33.614Z,102792.81
2023-01-23T12:43:04.079Z,102794.69
2023-01-23T12:45:30.792Z,102815.44
2023-01-23T12:48:01.060Z,102810.47
2023-01-23T12:50:37.125Z,102815.88
2023-01-23T12:53:10.319Z,102824.94
2023-01-23T12:55:38.037Z,102828.50
2023-01-23T12:58:09.378Z,102840.88
2023-01-23T13:00:54.786Z,102852.25
2023-01-23T13:03:46.060Z,102855.91
2023-01-23T13:06:45.845Z,102864.31
2023-01-23T13:09:19.730Z,102882.38
2023-01-23T13:11:55.563Z,102878.56
2023-01-23T13:14:21.736Z,102871.59
2023-01-23T13:16:48.570Z,102880.22
2023-01-23T13:19:20.245Z,102870.88
2023-01-23T13:22:05.819Z,102879.91
2023-01-23T13:24:47.682Z,102874.38
2023-01-23T13:27:32.790Z,102876.75
2023-01-23T13:29:59.029Z,102872.41
2023-01-23T13:32:27.995Z,102881.91
2023-01-23T13:34:54.271Z,102892.09
2023-01-23T13:37:45.911Z,102908.06
2023-01-23T13:40:16.309Z,102912.03
2023-01-23T13:42:42.511Z,102938.00
2023-01-23T13:45:21.120Z,102943.44
2023-01-23T14:22:54.632Z,102996.16
2023-01-23T14:25:21.095Z,102993.84
2023-01-23T14:27:53.786Z,102998.88
2023-01-23T14:30:24.265Z,102995.84
2023-01-23T14:32:50.524Z,102999.81
2023-01-23T14:35:16.791Z,102995.72
2023-01-23T14:37:42.996Z,102997.72
2023-01-23T14:40:26.467Z,103001.94
2023-01-23T14:43:00.100Z,103001.00
2023-01-23T14:45:28.268Z,103006.75
2023-01-23T14:48:05.045Z,103016.06
2023-01-23T14:50:32.076Z,103012.94
2023-01-23T14:52:58.973Z,103017.13
2023-01-23T14:55:29.773Z,103014.56
2023-01-23T14:57:56.887Z,103021.22
2023-01-23T15:00:23.219Z,103023.66
2023-01-23T15:02:49.460Z,103026.09
2023-01-23T15:05:15.621Z,103026.81
2023-01-23T15:08:02.083Z,103031.72
2023-01-23T15:10:31.274Z,103027.03
2023-01-23T15:13:00.242Z,103031.72
2023-01-23T15:15:26.518Z,103026.56
2023-01-23T15:17:52.987Z,103029.50
2023-01-23T15:20:29.196Z,103025.00
2023-01-23T15:22:55.403Z,103020.31
2023-01-23T15:25:28.564Z,103017.97
2023-01-23T15:27:54.785Z,103019.84
2023-01-23T15:30:31.109Z,103016.22
2023-01-23T15:32:57.375Z,103020.56
2023-01-23T15:35:23.804Z,103029.56
2023-01-23T15:37:50.035Z,103030.97
2023-01-23T15:40:17.145Z,103039.97
2023-01-23T15:42:43.366Z,103036.34
2023-01-23T15:45:15.853Z,103033.75
2023-01-23T15:47:42.092Z,103036.34
2023-01-23T15:50:09.318Z,103030.16
2023-01-23T15:52:45.460Z,103035.88
2023-01-23T15:55:11.709Z,103030.16
2023-01-23T15:57:37.947Z,103017.97
2023-01-23T16:00:13.356Z,103008.94
2023-01-23T16:02:54.733Z,103006.28
2023-01-23T16:05:25.721Z,103004.88
2023-01-23T16:07:51.935Z,103007.44
2023-01-23T16:10:18.156Z,103005.59
2023-01-23T16:12:44.534Z,103005.59
2023-01-23T16:15:17.877Z,102997.63
2023-01-23T16:17:44.254Z,103009.56
2023-01-23T16:20:14.030Z,103001.97
2023-01-23T16:22:40.236Z,103017.16
2023-01-23T16:25:06.751Z,103016.00
2023-01-23T16:27:32.949Z,103020.81
2023-01-23T16:29:59.163Z,103022.19
2023-01-23T16:32:25.471Z,103032.94
2023-01-23T16:34:51.779Z,103018.91
2023-01-23T16:37:18.110Z,103013.66
2023-01-23T16:39:44.671Z,103017.66
2023-01-23T16:42:15.034Z,103014.34
2023-01-23T16:44:41.256Z,103013.44
2023-01-23T16:47:07.467Z,103005.59
2023-01-23T16:49:43.101Z,102993.09
2023-01-23T16:52:16.775Z,102992.16
2023-01-23T16:54:43.053Z,102990.94
2023-01-23T16:57:44.987Z,102990.47
2023-01-23T17:00:46.230Z,102983.09
2023-01-23T17:03:17.205Z,102985.69
2023-01-23T17:05:49.474Z,102979.03
2023-01-23T17:08:16.283Z,102969.00
2023-01-23T17:10:46.508Z,102972.00
2023-01-23T17:13:13.083Z,102961.81
2023-01-23T17:15:39.333Z,102964.59
2023-01-23T17:18:05.570Z,102968.09
2023-01-23T17:20:31.819Z,102967.97
2023-01-23T17:22:58.013Z,102960.03
2023-01-23T17:25:25.403Z,102963.56
2023-01-23T17:28:10.829Z,102958.63
2023-01-23T17:30:37.958Z,102951.00
2023-01-23T17:33:04.162Z,102952.44
2023-01-23T17:35:31.705Z,102944.34
2023-01-23T17:37:57.915Z,102934.47
2023-01-23T17:40:24.195Z,102941.25
2023-01-23T17:42:50.469Z,102942.09
2023-01-23T17:45:17.408Z,102949.38
2023-01-23T17:47:44.236Z,102938.13
2023-01-23T17:50:20.616Z,102943.28
2023-01-23T17:52:46.973Z,102944.69
2023-01-23T17:55:13.893Z,102940.47
2023-01-23T17:57:40.087Z,102940.25
2023-01-23T18:00:06.907Z,102941.06
2023-01-23T18:02:33.135Z,102948.28
2023-01-23T18:04:59.378Z,102937.06
2023-01-23T18:07:25.612Z,102950.63
2023-01-23T18:09:51.833Z,102951.44
2023-01-23T18:12:29.279Z,102943.88
2023-01-23T18:15:02.664Z,102933.22
2023-01-23T18:17:29.674Z,102928.31
2023-01-23T18:19:55.956Z,102932.16
2023-01-23T18:22:22.188Z,102929.94
2023-01-23T18:24:48.508Z,102935.66
2023-01-23T18:27:20.729Z,102937.19
2023-01-23T18:29:51.062Z,102933.66
2023-01-23T18:32:35.986Z,102941.75
2023-01-23T18:35:21.396Z,102944.22
2023-01-23T18:37:53.586Z,102941.34
2023-01-23T18:40:21.561Z,102947.75
2023-01-23T18:42:59.834Z,102949.94
2023-01-23T18:45:27.599Z,102953.25
2023-01-23T18:47:54.199Z,102948.44
2023-01-23T18:50:20.810Z,102958.97
2023-01-23T18:52:59.471Z,102953.81
2023-01-23T18:55:31.170Z,102960.59
2023-01-23T18:57:57.325Z,102954.28
2023-01-23T19:00:32.775Z,102956.97
2023-01-23T19:03:01.650Z,102956.53
2023-01-23T19:05:28.872Z,102956.28
2023-01-23T19:07:55.116Z,102957.22
2023-01-23T19:10:22.152Z,102958.41
2023-01-23T19:13:06.534Z,102957.88
2023-01-23T19:15:38.640Z,102958.69
2023-01-23T19:18:13.957Z,102954.47
2023-01-23T19:20:43.907Z,102956.66
2023-01-23T19:23:25.371Z,102951.00
2023-01-23T19:25:51.656Z,102955.09
2023-01-23T19:28:18.003Z,102965.19
2023-01-23T19:30:44.381Z,102955.59
2023-01-23T19:33:17.028Z,102952.53
2023-01-23T19:35:43.588Z,102957.22
2023-01-23T19:38:09.823Z,102956.53
2023-01-23T19:40:36.061Z,102962.38
2023-01-23T19:43:14.074Z,102959.81
2023-01-23T19:45:40.819Z,102954.91
2023-01-23T19:48:07.039Z,102949.09
2023-01-23T19:50:33.281Z,102943.66
2023-01-23T19:52:59.508Z,102948.44
2023-01-23T19:55:26.488Z,102944.69
2023-01-23T19:57:53.262Z,102937.88
2023-01-23T20:00:19.849Z,102930.91
2023-01-23T20:02:46.429Z,102936.63
2023-01-23T20:05:12.621Z,102928.78
2023-01-23T20:07:38.820Z,102934.75
2023-01-23T20:10:05.273Z,102932.72
2023-01-23T20:12:31.500Z,102931.22
2023-01-23T20:14:57.714Z,102921.41
2023-01-23T20:17:23.918Z,102919.16
2023-01-23T20:19:50.114Z,102914.94
2023-01-23T20:22:16.332Z,102921.28
2023-01-23T20:24:42.545Z,102920.75
2023-01-23T20:27:08.773Z,102917.22
2023-01-23T20:29:34.977Z,102914.63
2023-01-23T20:32:01.222Z,102907.53
2023-01-23T20:34:27.450Z,102902.38
2023-01-23T20:36:53.843Z,102901.09
2023-01-23T20:39:20.077Z,102902.06
2023-01-23T20:41:46.285Z,102892.41
2023-01-23T20:44:12.489Z,102901.91
2023-01-23T20:46:38.703Z,102893.72
2023-01-23T20:49:04.922Z,102904.38
2023-01-23T20:51:31.133Z,102909.53
2023-01-23T20:53:57.354Z,102903.00
2023-01-23T20:56:23.651Z,102911.66
2023-01-23T20:58:49.899Z,102901.47
2023-01-23T21:01:16.636Z,102891.38
2023-01-23T21:03:42.964Z,102880.50
2023-01-23T21:06:09.518Z,102880.50
2023-01-23T21:08:35.742Z,102883.88
2023-01-23T21:11:05.833Z,102884.47
2023-01-23T21:13:32.074Z,102871.72
2023-01-23T21:16:01.261Z,102875.81
2023-01-23T21:18:27.503Z,102877.22
2023-01-23T21:20:53.696Z,102872.47
2023-01-23T21:23:19.919Z,102870.31
2023-01-23T21:25:46.127Z,102865.25
2023-01-23T21:28:12.344Z,102873.81
2023-01-23T21:30:38.577Z,102874.94
2023-01-23T21:33:04.976Z,102869.66
2023-01-23T21:35:31.188Z,102869.25
2023-01-23T21:37:57.413Z,102880.25
2023-01-23T21:40:23.605Z,102877.00
2023-01-23T21:42:49.809Z,102884.59
2023-01-23T21:45:16.012Z,102891.38
2023-01-23T21:47:42.214Z,102891.00
2023-01-23T21:50:08.772Z,102910.22
2023-01-23T21:52:34.987Z,102913.41
2023-01-23T21:55:01.204Z,102908.00
2023-01-23T21:57:27.397Z,102902.75
2023-01-23T21:59:53.603Z,102894.59
2023-01-23T22:02:19.826Z,102905.00
2023-01-23T22:04:46.122Z,102909.22
2023-01-23T22:07:12.331Z,102922.91
2023-01-23T22:09:38.578Z,102936.59
2023-01-23T22:12:04.902Z,102939.97
2023-01-23T22:14:31.115Z,102950.50
2023-01-23T22:16:57.343Z,102946.88
2023-01-23T22:19:25.773Z,102953.41
2023-01-23T22:21:52.800Z,102958.13
2023-01-23T22:24:19.232Z,102974.25
2023-01-23T22:26:45.478Z,102975.19
2023-01-23T22:29:12.396Z,102986.44
2023-01-23T22:31:38.682Z,102983.50
2023-01-23T22:34:04.945Z,102978.09
2023-01-23T22:36:31.158Z,102982.44
2023-01-23T22:38:57.393Z,102979.28
2023-01-23T22:41:23.616Z,102971.78
2023-01-23T22:43:53.244Z,102970.97
2023-01-23T22:46:19.473Z,102963.94
2023-01-23T22:48:46.079Z,102961.97
2023-01-23T22:51:13.709Z,102962.31
2023-01-23T22:53:39.955Z,102963.28
2023-01-23T22:56:06.353Z,102971.91
2023-01-23T22:58:33.075Z,102963.59
2023-01-23T23:00:59.325Z,102969.13
2023-01-23T23:03:25.611Z,102984.78
2023-01-23T23:05:58.302Z,102989.47
2023-01-23T23:08:24.520Z,102995.31
2023-01-23T23:10:57.558Z,103002.13
2023-01-23T23:13:23.763Z,102990.50
2023-01-23T23:15:49.987Z,103010.41
2023-01-23T23:18:16.193Z,103016.28
2023-01-23T23:20:42.401Z,103013.47
2023-01-23T23:23:08.610Z,103009.25
2023-01-23T23:25:35.056Z,103005.16
2023-01-23T23:28:01.269Z,103008.66
2023-01-23T23:30:27.476Z,103013.00
2023-01-23T23:32:53.688Z,103019.41
2023-01-23T23:35:20.300Z,103012.53
2023-01-23T23:37:46.677Z,103006.91
2023-01-23T23:40:12.884Z,103008.19
2023-01-23T23:42:39.082Z,103015.91
2023-01-23T23:45:05.867Z,103015.81
2023-01-23T23:47:32.083Z,103025.16
2023-01-23T23:49:58.311Z,103028.91
2023-01-23T23:52:24.521Z,103029.59
2023-01-23T23:54:50.746Z,103018.84
2023-01-23T23:57:16.956Z,103026.22
2023-01-23T23:59:43.172Z,103021.66
